^^
Saratoga-Weather Station Historical Data
Daily Summary for June 27, 2022 Units:  English    Metric   Both
Daily Weekly Monthly Yearly Custom
  High: Low: Average:
Temperature: 69.6 °F 59 °F 62.8 °F
Dew Point: 61.7 °F 56.5 °F 58.6 °F
Humidity: 95% 70% 87%
Wind Speed: 11mph 0mph 1.8mph
Wind Gust: 14mph - -
Wind- - West
Pressure: 30.1 in 29.9 in -
Precipitation: 0.01 in    
Historical Graphs
 
 
Tabular Data for June 27, 2022
Time Temperature Dew Point Pressure Wind Wind Speed Wind Gust Humidity Rainfall Rate (Hourly) solar
00:02 60.1 °F 58.3 °F 29.9 in SW 0.9 mph 1 mph 94% 0 in 0 W/m2
00:07 60.1 °F 58.3 °F 29.9 in Calm     94% 0 in 0 W/m2
00:12 60.1 °F 58.3 °F 29.9 in Calm     94% 0 in 0 W/m2
00:17 60.1 °F 58.3 °F 29.9 in Calm     94% 0 in 0 W/m2
00:22 60.1 °F 58.3 °F 29.9 in Calm   1 mph 94% 0 in 0 W/m2
00:27 60.1 °F 58.3 °F 29.9 in SW 0.9 mph 2 mph 94% 0 in 0 W/m2
00:32 60.1 °F 58.3 °F 29.9 in Calm     94% 0 in 0 W/m2
00:37 59.9 °F 58.1 °F 29.9 in Calm   2 mph 94% 0 in 0 W/m2
00:42 59.9 °F 58.1 °F 29.9 in Calm     94% 0 in 0 W/m2
00:47 59.7 °F 57.9 °F 29.9 in Calm     94% 0 in 0 W/m2
00:52 59.7 °F 57.9 °F 29.9 in SW 0.9 mph 1 mph 94% 0 in 0 W/m2
00:57 59.5 °F 57.7 °F 29.9 in SW 0.9 mph 1 mph 94% 0 in 0 W/m2
01:02 59.4 °F 57.6 °F 29.9 in Calm   1 mph 94% 0 in 0 W/m2
01:07 59.4 °F 57.6 °F 29.9 in Calm   1 mph 94% 0 in 0 W/m2
01:12 59.2 °F 57.4 °F 29.9 in Calm   1 mph 94% 0 in 0 W/m2
01:17 59.2 °F 57.4 °F 29.9 in Calm     94% 0 in 0 W/m2
01:22 59 °F 57.6 °F 29.9 in Calm     95% 0 in 0 W/m2
01:27 59.2 °F 57.7 °F 29.9 in Calm     95% 0 in 0 W/m2
01:32 59.2 °F 57.7 °F 29.9 in Calm     95% 0 in 0 W/m2
01:37 59.2 °F 57.7 °F 29.9 in SW 0.9 mph 1 mph 95% 0 in 0 W/m2
01:42 59.4 °F 57.9 °F 29.9 in West 2.9 mph 6 mph 95% 0 in 0 W/m2
01:47 59.2 °F 57.7 °F 29.9 in Calm   2 mph 95% 0 in 0 W/m2
01:52 59.2 °F 57.7 °F 29.9 in Calm     95% 0 in 0 W/m2
01:57 59.2 °F 57.7 °F 29.9 in West 0.9 mph 1 mph 95% 0 in 0 W/m2
02:02 59.2 °F 57.7 °F 29.9 in WSW 2 mph 3 mph 95% 0 in 0 W/m2
02:07 59.2 °F 57.7 °F 29.9 in NW 2.9 mph 3 mph 95% 0 in 0 W/m2
02:12 59.4 °F 57.9 °F 29.9 in NW 0.9 mph 2 mph 95% 0 in 0 W/m2
02:17 59.4 °F 57.9 °F 29.9 in WNW 4 mph 4 mph 95% 0 in 0 W/m2
02:22 59.4 °F 57.9 °F 29.9 in WNW 2 mph 3 mph 95% 0 in 0 W/m2
02:28 59.2 °F 57.7 °F 29.9 in NNW 0.9 mph 3 mph 95% 0 in 0 W/m2
02:33 59.2 °F 57.7 °F 29.9 in Calm   2 mph 95% 0 in 0 W/m2
02:38 59.2 °F 57.7 °F 29.9 in WNW 2 mph 3 mph 95% 0 in 0 W/m2
02:43 59.2 °F 57.7 °F 29.9 in WNW 2 mph 3 mph 95% 0 in 0 W/m2
02:48 59.2 °F 57.7 °F 29.9 in West 2 mph 5 mph 95% 0 in 0 W/m2
02:53 59.2 °F 57.7 °F 29.9 in West 2.9 mph 3 mph 95% 0 in 0 W/m2
02:58 59.2 °F 57.7 °F 29.9 in West 0.9 mph 2 mph 95% 0 in 0 W/m2
03:03 59.2 °F 57.7 °F 29.9 in WSW 4 mph 4 mph 95% 0 in 0 W/m2
03:08 59.2 °F 57.7 °F 29.9 in West 2 mph 3 mph 95% 0 in 0 W/m2
03:13 59.2 °F 57.4 °F 29.9 in West 2.9 mph 4 mph 94% 0 in 0 W/m2
03:18 59.2 °F 57.4 °F 30 in West 0.9 mph 6 mph 94% 0 in 0 W/m2
03:23 59.4 °F 57.6 °F 30 in West 2 mph 2 mph 94% 0 in 0 W/m2
03:28 59.4 °F 57.6 °F 29.9 in West 0.9 mph 4 mph 94% 0 in 0 W/m2
03:33 59.4 °F 57.6 °F 29.9 in SW 2.9 mph 4 mph 94% 0 in 0 W/m2
03:38 59.4 °F 57.6 °F 29.9 in West 2.9 mph 3 mph 94% 0 in 0 W/m2
03:43 59.5 °F 57.7 °F 29.9 in West 2 mph 4 mph 94% 0 in 0 W/m2
03:48 59.5 °F 57.7 °F 29.9 in West 6 mph 6 mph 94% 0 in 0 W/m2
03:53 59.5 °F 57.7 °F 29.9 in West 2.9 mph 6 mph 94% 0 in 0 W/m2
03:58 59.5 °F 57.7 °F 29.9 in West 2 mph 4 mph 94% 0 in 0 W/m2
04:03 59.5 °F 57.6 °F 29.9 in West 2.9 mph 6 mph 93% 0 in 0 W/m2
04:08 59.5 °F 57.6 °F 29.9 in WNW 4 mph 4 mph 93% 0 in 0 W/m2
04:13 59.5 °F 57.6 °F 29.9 in West 2 mph 3 mph 93% 0 in 0 W/m2
04:18 59.5 °F 57.6 °F 29.9 in West 2 mph 4 mph 93% 0 in 0 W/m2
04:23 59.5 °F 57.6 °F 29.9 in Calm   1 mph 93% 0 in 0 W/m2
04:28 59.7 °F 57.7 °F 29.9 in Calm   1 mph 93% 0 in 0 W/m2
04:33 59.7 °F 57.7 °F 29.9 in Calm     93% 0 in 0 W/m2
04:38 59.7 °F 57.7 °F 29.9 in Calm   1 mph 93% 0 in 0 W/m2
04:43 59.7 °F 57.7 °F 29.9 in Calm     93% 0 in 0 W/m2
04:48 59.5 °F 57.6 °F 29.9 in Calm     93% 0 in 0 W/m2
04:53 59.5 °F 57.6 °F 29.9 in Calm     93% 0 in 0 W/m2
04:58 59.5 °F 57.6 °F 29.9 in Calm     93% 0 in 0 W/m2
05:03 59.5 °F 57.7 °F 29.9 in Calm   2 mph 94% 0 in 0 W/m2
05:08 59.4 °F 57.6 °F 29.9 in West 2 mph 3 mph 94% 0 in 0 W/m2
05:13 59.4 °F 57.6 °F 29.9 in Calm   2 mph 94% 0 in 0 W/m2
05:18 59.4 °F 57.6 °F 29.9 in Calm     94% 0 in 0 W/m2
05:23 59.4 °F 57.6 °F 29.9 in Calm     94% 0 in 0 W/m2
05:28 59.4 °F 57.6 °F 29.9 in SW 0.9 mph 2 mph 94% 0 in 0 W/m2
05:33 59.4 °F 57.6 °F 29.9 in Calm     94% 0 in 0 W/m2
05:38 59.4 °F 57.6 °F 29.9 in NW 0.9 mph 5 mph 94% 0 in 0 W/m2
05:43 59.4 °F 57.6 °F 29.9 in NW 0.9 mph 1 mph 94% 0 in 0 W/m2
05:48 59.4 °F 57.6 °F 29.9 in Calm   5 mph 94% 0 in 5 W/m2
05:53 59.4 °F 57.6 °F 29.9 in Calm     94% 0 in 14 W/m2
05:58 59.4 °F 57.6 °F 29.9 in Calm     94% 0 in 25 W/m2
06:03 59.4 °F 57.6 °F 29.9 in Calm   1 mph 94% 0 in 23 W/m2
06:08 59.4 °F 57.6 °F 29.9 in NE 0.9 mph 2 mph 94% 0 in 18 W/m2
06:13 59.4 °F 57.6 °F 29.9 in NNW 0.9 mph 2 mph 94% 0 in 14 W/m2
06:18 59.2 °F 57.4 °F 29.9 in WNW 0.9 mph 4 mph 94% 0 in 28 W/m2
06:23 59.2 °F 57.4 °F 29.9 in WNW 2 mph 3 mph 94% 0 in 35 W/m2
06:28 59.4 °F 57.6 °F 29.9 in Calm   4 mph 94% 0 in 63 W/m2
06:33 59.4 °F 57.6 °F 29.9 in Calm     94% 0 in 54 W/m2
06:38 59.4 °F 57.6 °F 29.9 in Calm     94% 0 in 30 W/m2
06:43 59.4 °F 57.6 °F 29.9 in Calm     94% 0 in 23 W/m2
06:48 59.5 °F 57.7 °F 29.9 in West 0.9 mph 2 mph 94% 0 in 37 W/m2
06:53 59.5 °F 57.7 °F 29.9 in Calm   3 mph 94% 0 in 32 W/m2
06:58 59.5 °F 57.7 °F 29.9 in Calm   4 mph 94% 0 in 33 W/m2
07:03 59.4 °F 57.6 °F 29.9 in Calm     94% 0 in 23 W/m2
07:08 59.5 °F 57.7 °F 29.9 in Calm   4 mph 94% 0 in 21 W/m2
07:13 59.4 °F 57.6 °F 30 in West 2 mph 6 mph 94% 0 in 33 W/m2
07:18 59.4 °F 57.6 °F 30 in WNW 0.9 mph 7 mph 94% 0 in 51 W/m2
07:23 59.2 °F 57.4 °F 30 in NW 0.9 mph 4 mph 94% 0 in 33 W/m2
07:28 59.2 °F 57.2 °F 30 in WNW 2.9 mph 5 mph 93% 0 in 32 W/m2
07:33 59.2 °F 57.2 °F 30 in NW 2 mph 2 mph 93% 0 in 37 W/m2
07:38 59.2 °F 57.2 °F 30 in West 4 mph 7 mph 93% 0 in 33 W/m2
07:43 59.2 °F 57.2 °F 29.9 in WNW 0.9 mph 5 mph 93% 0 in 40 W/m2
07:48 59.2 °F 57.2 °F 29.9 in NW 2 mph 3 mph 93% 0 in 65 W/m2
07:53 59.2 °F 57.2 °F 29.9 in WNW 2 mph 5 mph 93% 0 in 72 W/m2
07:58 59.4 °F 57.6 °F 29.9 in Calm   2 mph 94% 0 in 97 W/m2
08:03 59.4 °F 57.6 °F 29.9 in WNW 0.9 mph 2 mph 94% 0 in 86 W/m2
08:08 59.4 °F 57.6 °F 29.9 in Calm     94% 0 in 90 W/m2
08:13 59.5 °F 57.7 °F 29.9 in WSW 2.9 mph 3 mph 94% 0 in 118 W/m2
08:18 59.5 °F 57.6 °F 30 in West 0.9 mph 1 mph 93% 0 in 127 W/m2
08:23 59.7 °F 57.7 °F 30 in West 0.9 mph 1 mph 93% 0 in 116 W/m2
08:28 59.9 °F 57.9 °F 30 in Calm     93% 0 in 100 W/m2
08:33 60.1 °F 58.1 °F 30 in WNW 2.9 mph 6 mph 93% 0 in 67 W/m2
08:38 60.3 °F 58.3 °F 30 in Calm   3 mph 93% 0 in 79 W/m2
08:43 60.3 °F 57.9 °F 30 in West 0.9 mph 2 mph 92% 0 in 109 W/m2
08:48 60.4 °F 58.1 °F 30 in WNW 0.9 mph 3 mph 92% 0 in 102 W/m2
08:53 60.4 °F 58.1 °F 30 in WNW 0.9 mph 4 mph 92% 0 in 84 W/m2
08:58 60.4 °F 58.1 °F 30 in Calm     92% 0 in 105 W/m2
09:03 60.6 °F 58.3 °F 30 in Calm   4 mph 92% 0 in 121 W/m2
09:08 60.6 °F 58.3 °F 30 in WSW 2 mph 5 mph 92% 0 in 79 W/m2
09:13 61 °F 58.6 °F 30 in Calm   3 mph 92% 0 in 40 W/m2
09:18 61 °F 58.3 °F 30 in WSW 0.9 mph 3 mph 91% 0 in 46 W/m2
09:23 60.8 °F 58.1 °F 30 in NW 4.9 mph 5 mph 91% 0 in 49 W/m2
09:28 60.6 °F 57.9 °F 30 in WNW 2.9 mph 4 mph 91% 0 in 51 W/m2
09:33 60.6 °F 57.9 °F 30 in WSW 2.9 mph 7 mph 91% 0 in 51 W/m2
09:38 60.4 °F 57.7 °F 30 in West 4 mph 7 mph 91% 0 in 58 W/m2
09:43 60.4 °F 58.1 °F 30 in West 4 mph 6 mph 92% 0 in 76 W/m2
09:49 60.3 °F 57.9 °F 30 in WNW 4 mph 6 mph 92% 0 in 70 W/m2
09:54 60.3 °F 57.9 °F 30 in WNW 0.9 mph 4 mph 92% 0 in 58 W/m2
09:59 60.3 °F 57.9 °F 30 in WNW 0.9 mph 3 mph 92% 0.01 in 83 W/m2
10:04 60.3 °F 57.9 °F 30 in West 0.9 mph 2 mph 92% 0.01 in 69 W/m2
10:09 60.3 °F 57.9 °F 30 in West 0.9 mph 2 mph 92% 0.01 in 95 W/m2
10:14 60.4 °F 58.1 °F 30 in WNW 2 mph 3 mph 92% 0.01 in 127 W/m2
10:19 60.4 °F 58.1 °F 30 in WNW 0.9 mph 2 mph 92% 0.01 in 109 W/m2
10:24 60.6 °F 58.3 °F 30 in NNW 4 mph 6 mph 92% 0.01 in 93 W/m2
10:29 60.6 °F 58.3 °F 30 in WNW 2 mph 6 mph 92% 0.01 in 86 W/m2
10:34 60.6 °F 58.3 °F 30 in WNW 0.9 mph 4 mph 92% 0.01 in 91 W/m2
10:39 60.8 °F 58.5 °F 30 in West 2 mph 5 mph 92% 0.01 in 91 W/m2
10:44 60.8 °F 58.5 °F 30 in West 2.9 mph 3 mph 92% 0.01 in 111 W/m2
10:49 61 °F 58.6 °F 30 in NW 0.9 mph 6 mph 92% 0.01 in 132 W/m2
10:54 61 °F 58.6 °F 30 in SW 0.9 mph 2 mph 92% 0.01 in 183 W/m2
10:59 61.2 °F 58.8 °F 30 in WNW 0.9 mph 6 mph 92% 0 in 148 W/m2
11:04 61.3 °F 59 °F 30 in West 0.9 mph 2 mph 92% 0 in 95 W/m2
11:09 61.3 °F 58.6 °F 30 in Calm   3 mph 91% 0 in 100 W/m2
11:14 61.5 °F 59.2 °F 30 in Calm     92% 0 in 111 W/m2
11:19 61.7 °F 59.4 °F 30 in ESE 2 mph 3 mph 92% 0 in 135 W/m2
11:24 61.7 °F 59 °F 30 in ESE 0.9 mph 3 mph 91% 0 in 176 W/m2
11:29 61.9 °F 59.2 °F 30 in ESE 0.9 mph 1 mph 91% 0 in 162 W/m2
11:34 61.9 °F 59.2 °F 30 in Calm   3 mph 91% 0 in 153 W/m2
11:39 62.1 °F 59.4 °F 30 in West 0.9 mph 2 mph 91% 0 in 139 W/m2
11:44 62.1 °F 59.4 °F 30 in Calm   1 mph 91% 0 in 151 W/m2
11:49 62.2 °F 59.5 °F 30 in West 0.9 mph 1 mph 91% 0 in 204 W/m2
11:54 62.4 °F 59.7 °F 30 in West 2.9 mph 3 mph 91% 0 in 323 W/m2
11:59 62.8 °F 60.1 °F 30 in WNW 2 mph 3 mph 91% 0 in 267 W/m2
12:04 63 °F 59.9 °F 30 in NW 2 mph 5 mph 90% 0 in 213 W/m2
12:09 63 °F 59.9 °F 30 in WSW 2 mph 4 mph 90% 0 in 158 W/m2
12:14 63.1 °F 59.9 °F 30 in WSW 0.9 mph 2 mph 89% 0 in 207 W/m2
12:19 63.3 °F 60.3 °F 30 in WSW 0.9 mph 1 mph 90% 0 in 236 W/m2
12:24 63.7 °F 60.4 °F 30 in WNW 2.9 mph 3 mph 89% 0 in 209 W/m2
12:29 63.9 °F 60.3 °F 30 in WNW 2.9 mph 4 mph 88% 0 in 211 W/m2
12:34 63.9 °F 60.3 °F 30 in NW 2 mph 4 mph 88% 0 in 181 W/m2
12:39 64 °F 60.4 °F 30 in WNW 0.9 mph 2 mph 88% 0 in 149 W/m2
12:44 64 °F 60.1 °F 30 in West 2 mph 2 mph 87% 0 in 148 W/m2
12:49 64 °F 60.1 °F 30 in NE 0.9 mph 3 mph 87% 0 in 171 W/m2
12:54 64 °F 60.1 °F 30 in WNW 2 mph 4 mph 87% 0 in 272 W/m2
12:59 64 °F 60.4 °F 30 in West 0.9 mph 3 mph 88% 0 in 318 W/m2
13:04 64.2 °F 60.3 °F 30 in WNW 2 mph 3 mph 87% 0 in 283 W/m2
13:09 64.4 °F 60.4 °F 30 in NW 2 mph 7 mph 87% 0 in 260 W/m2
13:14 64.6 °F 61 °F 30 in Calm   3 mph 88% 0 in 243 W/m2
13:19 64.8 °F 60.4 °F 30 in West 2 mph 4 mph 86% 0 in 179 W/m2
13:24 64.8 °F 60.4 °F 30 in NW 2.9 mph 7 mph 86% 0 in 132 W/m2
13:29 64.8 °F 60.4 °F 30 in Calm   1 mph 86% 0 in 139 W/m2
13:34 64.8 °F 60.8 °F 30 in West 2.9 mph 7 mph 87% 0 in 200 W/m2
13:39 64.9 °F 60.6 °F 30 in Calm   1 mph 86% 0 in 162 W/m2
13:44 64.9 °F 60.6 °F 30 in WNW 4.9 mph 6 mph 86% 0 in 225 W/m2
13:49 65.1 °F 60.8 °F 30 in NW 2 mph 4 mph 86% 0 in 308 W/m2
13:54 65.3 °F 60.6 °F 30 in WNW 2 mph 4 mph 85% 0 in 271 W/m2
13:59 65.5 °F 60.8 °F 30 in NW 4 mph 4 mph 85% 0 in 309 W/m2
14:04 65.7 °F 61 °F 30 in WNW 2 mph 4 mph 85% 0 in 285 W/m2
14:09 65.8 °F 61.2 °F 30 in West 2 mph 4 mph 85% 0 in 388 W/m2
14:14 66.6 °F 61.2 °F 30 in Calm   11 mph 83% 0 in 336 W/m2
14:19 66.7 °F 61.3 °F 30 in West 2 mph 9 mph 83% 0 in 422 W/m2
14:24 66.9 °F 61.5 °F 30 in WNW 2.9 mph 6 mph 83% 0 in 315 W/m2
14:29 67.3 °F 61.5 °F 30 in West 2.9 mph 9 mph 82% 0 in 301 W/m2
14:34 67.5 °F 61.7 °F 30 in ENE 0.9 mph 8 mph 82% 0 in 325 W/m2
14:39 67.5 °F 61.3 °F 30 in WSW 2 mph 6 mph 81% 0 in 448 W/m2
14:44 67.8 °F 61.3 °F 30 in North 2 mph 4 mph 80% 0 in 615 W/m2
14:49 68.5 °F 61.7 °F 30 in WSW 4 mph 9 mph 79% 0 in 874 W/m2
14:54 69.1 °F 61.5 °F 30 in West 6 mph 12 mph 77% 0 in 1088 W/m2
14:59 69.4 °F 61.5 °F 30 in West 8.1 mph 10 mph 76% 0 in 464 W/m2
15:04 69.6 °F 61.3 °F 30 in WSW 4 mph 12 mph 75% 0 in 417 W/m2
15:09 69.1 °F 60.4 °F 30 in WSW 11 mph 14 mph 74% 0 in 327 W/m2
15:14 68.5 °F 60.3 °F 30 in NNW 8.9 mph 9 mph 75% 0 in 353 W/m2
15:19 68.9 °F 60.6 °F 30 in WSW 8.1 mph 14 mph 75% 0 in 499 W/m2
15:24 68.9 °F 60.3 °F 30 in SW 8.1 mph 13 mph 74% 0 in 512 W/m2
15:29 68.7 °F 60.4 °F 30 in West 2.9 mph 7 mph 75% 0 in 301 W/m2
15:34 68.5 °F 60.3 °F 30 in West 6.9 mph 13 mph 75% 0 in 343 W/m2
15:39 68.4 °F 60.4 °F 30 in NW 2.9 mph 7 mph 76% 0 in 791 W/m2
15:44 68.7 °F 60.8 °F 30 in WNW 2.9 mph 10 mph 76% 0 in 1223 W/m2
15:49 69.1 °F 60.8 °F 30 in NW 8.1 mph 12 mph 75% 0 in 1107 W/m2
15:54 69.4 °F 60.8 °F 30 in NW 10.1 mph 10 mph 74% 0 in 947 W/m2
15:59 69.6 °F 60.6 °F 30 in West 6 mph 10 mph 73% 0 in 1035 W/m2
16:04 69.6 °F 60.6 °F 30.1 in WNW 2.9 mph 10 mph 73% 0 in 239 W/m2
16:09 69.1 °F 60.4 °F 30.1 in WSW 4.9 mph 9 mph 74% 0 in 271 W/m2
16:14 68.9 °F 60.3 °F 30.1 in WSW 2.9 mph 9 mph 74% 0 in 232 W/m2
16:19 68.7 °F 60.1 °F 30.1 in West 6 mph 10 mph 74% 0 in 399 W/m2
16:24 69.1 °F 60.8 °F 30 in WNW 8.1 mph 9 mph 75% 0 in 875 W/m2
16:29 69.4 °F 60.4 °F 30.1 in WSW 8.9 mph 13 mph 73% 0 in 202 W/m2
16:34 69.3 °F 60.3 °F 30.1 in NW 2.9 mph 9 mph 73% 0 in 309 W/m2
16:39 69.1 °F 60.1 °F 30.1 in West 6.9 mph 13 mph 73% 0 in 380 W/m2
16:44 69.1 °F 60.1 °F 30.1 in WNW 11 mph 11 mph 73% 0 in 248 W/m2
16:49 68.5 °F 59.9 °F 30.1 in West 8.1 mph 11 mph 74% 0 in 151 W/m2
16:54 68.2 °F 59.9 °F 30.1 in SW 4 mph 8 mph 75% 0 in 199 W/m2
16:59 68.2 °F 60.3 °F 30.1 in WSW 4 mph 9 mph 76% 0 in 216 W/m2
17:04 68.2 °F 60.3 °F 30.1 in NW 2.9 mph 9 mph 76% 0 in 336 W/m2
17:09 68.4 °F 60.8 °F 30.1 in West 2.9 mph 6 mph 77% 0 in 436 W/m2
17:14 68.9 °F 61 °F 30.1 in NNW 2 mph 7 mph 76% 0 in 705 W/m2
17:19 69.4 °F 61.2 °F 30.1 in WNW 6.9 mph 10 mph 75% 0 in 471 W/m2
17:24 69.3 °F 60.6 °F 30.1 in West 6.9 mph 10 mph 74% 0 in 345 W/m2
17:29 68.7 °F 59.4 °F 30.1 in WSW 4.9 mph 11 mph 72% 0 in 204 W/m2
17:34 68.4 °F 59.4 °F 30.1 in West 8.1 mph 10 mph 73% 0 in 227 W/m2
17:39 67.8 °F 59.2 °F 30.1 in NW 4.9 mph 8 mph 74% 0 in 181 W/m2
17:44 67.6 °F 59.4 °F 30.1 in West 8.1 mph 10 mph 75% 0 in 232 W/m2
17:49 67.3 °F 59.5 °F 30.1 in NW 6 mph 11 mph 76% 0 in 127 W/m2
17:54 66.9 °F 59.5 °F 30.1 in NW 4.9 mph 9 mph 77% 0 in 171 W/m2
17:59 66.6 °F 59.9 °F 30.1 in West 4 mph 8 mph 79% 0 in 160 W/m2
18:04 66.6 °F 60.3 °F 30.1 in West 2.9 mph 7 mph 80% 0 in 185 W/m2
18:10 66.4 °F 59.7 °F 30.1 in WNW 4 mph 8 mph 79% 0 in 121 W/m2
18:15 66 °F 59 °F 30.1 in NW 4 mph 10 mph 78% 0 in 111 W/m2
18:20 66 °F 58.6 °F 30.1 in NNW 4 mph 6 mph 77% 0 in 137 W/m2
18:25 66 °F 58.6 °F 30.1 in West 2 mph 10 mph 77% 0 in 84 W/m2
18:30 66 °F 58.6 °F 30.1 in WSW 0.9 mph 5 mph 77% 0 in 118 W/m2
18:35 66 °F 58.6 °F 30.1 in West 2.9 mph 3 mph 77% 0 in 128 W/m2
18:40 66 °F 58.3 °F 30.1 in SW 2 mph 4 mph 76% 0 in 113 W/m2
18:45 66 °F 58.3 °F 30.1 in WNW 4 mph 6 mph 76% 0 in 104 W/m2
18:50 65.8 °F 58.1 °F 30.1 in NNW 2.9 mph 4 mph 76% 0 in 116 W/m2
18:55 66 °F 58.6 °F 30.1 in NW 0.9 mph 1 mph 77% 0 in 90 W/m2
19:00 66 °F 58.6 °F 30.1 in NW 0.9 mph 2 mph 77% 0 in 83 W/m2
19:05 66 °F 58.3 °F 30.1 in West 0.9 mph 3 mph 76% 0 in 95 W/m2
19:10 65.8 °F 58.5 °F 30.1 in West 2 mph 3 mph 77% 0 in 88 W/m2
19:15 65.8 °F 58.5 °F 30.1 in West 2.9 mph 4 mph 77% 0 in 84 W/m2
19:20 65.8 °F 58.5 °F 30.1 in WSW 2 mph 2 mph 77% 0 in 88 W/m2
19:25 65.8 °F 58.8 °F 30.1 in WSW 0.9 mph 1 mph 78% 0 in 97 W/m2
19:30 65.8 °F 58.5 °F 30.1 in Calm   2 mph 77% 0 in 90 W/m2
19:35 65.8 °F 58.5 °F 30.1 in West 0.9 mph 3 mph 77% 0 in 90 W/m2
19:40 65.8 °F 58.1 °F 30.1 in NW 2 mph 3 mph 76% 0 in 97 W/m2
19:45 66 °F 58.6 °F 30.1 in NW 0.9 mph 2 mph 77% 0 in 98 W/m2
19:50 66 °F 58.3 °F 30.1 in West 2.9 mph 4 mph 76% 0 in 97 W/m2
19:55 66 °F 58.3 °F 30.1 in West 0.9 mph 4 mph 76% 0 in 102 W/m2
20:00 66.2 °F 57.7 °F 30.1 in WSW 2.9 mph 4 mph 74% 0 in 229 W/m2
20:05 66.6 °F 58.1 °F 30.1 in NW 0.9 mph 3 mph 74% 0 in 183 W/m2
20:10 66.9 °F 57.6 °F 30.1 in NW 0.9 mph 5 mph 72% 0 in 128 W/m2
20:15 67.3 °F 57.2 °F 30.1 in NNW 0.9 mph 4 mph 70% 0 in 120 W/m2
20:20 67.3 °F 57.2 °F 30.1 in WNW 0.9 mph 5 mph 70% 0 in 113 W/m2
20:25 67.1 °F 57.4 °F 30.1 in Calm   2 mph 71% 0 in 88 W/m2
20:30 66.9 °F 57.6 °F 30.1 in WNW 2 mph 4 mph 72% 0 in 60 W/m2
20:35 66.7 °F 57.4 °F 30.1 in Calm   1 mph 72% 0 in 44 W/m2
20:40 66.6 °F 57.6 °F 30.1 in Calm   1 mph 73% 0 in 30 W/m2
20:45 66.6 °F 58.8 °F 30.1 in Calm   1 mph 76% 0 in 72 W/m2
20:50 66.6 °F 59.2 °F 30.1 in Calm     77% 0 in 90 W/m2
20:55 66.6 °F 59.2 °F 30.1 in Calm   1 mph 77% 0 in 65 W/m2
21:00 66.6 °F 59.5 °F 30.1 in Calm     78% 0 in 47 W/m2
21:05 66.6 °F 59.5 °F 30.1 in Calm     78% 0 in 25 W/m2
21:10 66.6 °F 59.2 °F 30.1 in Calm     77% 0 in 26 W/m2
21:15 66.4 °F 59 °F 30.1 in Calm     77% 0 in 11 W/m2
21:20 66 °F 58.6 °F 30.1 in Calm     77% 0 in 9 W/m2
21:25 65.7 °F 58.3 °F 30.1 in Calm     77% 0 in 7 W/m2
21:30 65.1 °F 58.1 °F 30.1 in Calm     78% 0 in 7 W/m2
21:35 64.9 °F 58.3 °F 30.1 in Calm     79% 0 in 5 W/m2
21:40 64.6 °F 57.9 °F 30.1 in Calm     79% 0 in 0 W/m2
21:45 63.9 °F 57.6 °F 30.1 in Calm     80% 0 in 0 W/m2
21:50 63.3 °F 57.4 °F 30.1 in Calm     81% 0 in 0 W/m2
21:55 63.1 °F 57.2 °F 30.1 in Calm     81% 0 in 0 W/m2
22:00 63 °F 57.4 °F 30.1 in Calm     82% 0 in 0 W/m2
22:05 62.6 °F 57 °F 30.1 in Calm     82% 0 in 0 W/m2
22:10 62.2 °F 56.7 °F 30.1 in Calm     82% 0 in 0 W/m2
22:15 62.1 °F 56.5 °F 30.1 in Calm     82% 0 in 0 W/m2
22:20 61.9 °F 56.7 °F 30.1 in Calm   1 mph 83% 0 in 0 W/m2
22:25 61.5 °F 56.7 °F 30.1 in Calm     84% 0 in 0 W/m2
22:30 61.3 °F 56.5 °F 30.1 in West 0.9 mph 1 mph 84% 0 in 0 W/m2
22:35 61.2 °F 56.7 °F 30.1 in Calm     85% 0 in 0 W/m2
22:40 61.2 °F 56.7 °F 30.1 in Calm     85% 0 in 0 W/m2
22:45 61.2 °F 56.7 °F 30.1 in Calm     85% 0 in 0 W/m2
22:50 61.2 °F 57 °F 30.1 in Calm     86% 0 in 0 W/m2
22:55 61.2 °F 57 °F 30.1 in Calm     86% 0 in 0 W/m2
23:00 61 °F 56.8 °F 30.1 in Calm     86% 0 in 0 W/m2
23:05 61 °F 56.8 °F 30.1 in Calm     86% 0 in 0 W/m2
23:10 61 °F 56.8 °F 30.1 in Calm     86% 0 in 0 W/m2
23:15 61.2 °F 57 °F 30.1 in Calm     86% 0 in 0 W/m2
23:20 61.2 °F 57.2 °F 30.1 in Calm   2 mph 87% 0 in 0 W/m2
23:25 61.3 °F 57.2 °F 30.1 in West 0.9 mph 1 mph 86% 0 in 0 W/m2
23:30 61.3 °F 57.2 °F 30.1 in West 0.9 mph 1 mph 86% 0 in 0 W/m2
23:35 61.5 °F 57.6 °F 30.1 in Calm   1 mph 87% 0 in 0 W/m2
23:40 61.5 °F 57.4 °F 30.1 in Calm     86% 0 in 0 W/m2
23:45 61.5 °F 57.6 °F 30.1 in Calm   1 mph 87% 0 in 0 W/m2
23:50 61.5 °F 57.6 °F 30.1 in West 0.9 mph 1 mph 87% 0 in 0 W/m2
23:55 61.5 °F 57.6 °F 30.1 in Calm   1 mph 87% 0 in 0 W/m2
Juneau County Weather
Compliments of Weather Underground - 4 mb